Time;durP1;ratioP1;P1;durP2;ratioP2;P2;SDS_P1;SDS_P2;PMS_P1;PMS_P2;Temp;Humidity;BMP_temperature;BMP_pressure;BME280_temperature;BME280_humidity;BME280_pressure;Samples;Min_cycle;Max_cycle;Signal;HPM_P1;HPM_P2
2022/03/20 00:00:39;;;;;;;31.43;19.57;;;3.70;99.90;;;;;;5070193;28;20987;-75
2022/03/20 00:03:12;;;;;;;32.23;20.73;;;3.60;99.90;;;;;;5070092;28;20190;-76
2022/03/20 00:05:39;;;;;;;32.23;18.67;;;3.70;99.90;;;;;;5070150;28;20423;-76
2022/03/20 00:08:08;;;;;;;27.52;19.65;;;3.70;99.90;;;;;;5068685;28;20418;-76
2022/03/20 00:10:35;;;;;;;29.95;19.33;;;3.70;99.90;;;;;;5068582;28;20198;-75
2022/03/20 00:13:02;;;;;;;30.02;19.10;;;3.80;99.90;;;;;;5070108;28;20192;-75
2022/03/20 00:15:30;;;;;;;26.13;17.60;;;3.70;99.90;;;;;;5068557;28;20751;-76
2022/03/20 00:17:55;;;;;;;29.65;18.50;;;3.80;99.90;;;;;;5070045;28;20228;-76
2022/03/20 00:20:21;;;;;;;31.77;19.50;;;3.70;99.90;;;;;;5068546;28;20213;-75
2022/03/20 00:22:46;;;;;;;31.50;19.60;;;3.80;99.90;;;;;;5070063;28;20243;-76
2022/03/20 00:25:13;;;;;;;28.37;17.43;;;3.70;99.90;;;;;;5069611;28;20185;-75
2022/03/20 00:27:39;;;;;;;31.90;20.20;;;3.70;99.90;;;;;;5069622;28;20186;-75
2022/03/20 00:30:05;;;;;;;32.23;19.53;;;3.70;99.90;;;;;;5067979;28;20301;-75
2022/03/20 00:32:31;;;;;;;30.10;19.80;;;3.80;99.90;;;;;;5069341;28;20482;-76
2022/03/20 00:34:59;;;;;;;28.20;18.60;;;3.80;99.90;;;;;;5069602;28;20421;-75
2022/03/20 00:37:28;;;;;;;30.40;18.93;;;3.70;99.90;;;;;;5069402;28;20229;-76
2022/03/20 00:39:54;;;;;;;30.03;19.70;;;3.60;99.90;;;;;;5068907;28;20492;-75
2022/03/20 00:42:20;;;;;;;31.77;19.50;;;3.60;99.90;;;;;;5068338;28;20414;-76
2022/03/20 00:44:46;;;;;;;29.90;19.13;;;3.60;99.90;;;;;;5069611;28;20409;-76
2022/03/20 00:47:13;;;;;;;30.30;19.27;;;3.70;99.90;;;;;;5069209;28;20468;-75
2022/03/20 00:49:39;;;;;;;34.28;20.30;;;3.60;99.90;;;;;;5069244;28;20227;-75
2022/03/20 00:52:06;;;;;;;28.33;20.07;;;3.70;99.90;;;;;;5067783;28;20276;-76
2022/03/20 00:54:32;;;;;;;31.65;19.70;;;3.70;99.90;;;;;;5067725;28;20442;-76
2022/03/20 00:56:58;;;;;;;33.00;19.63;;;3.70;99.90;;;;;;5069315;28;20261;-76
2022/03/20 00:59:24;;;;;;;31.00;20.80;;;3.70;99.90;;;;;;5068064;28;21136;-75
2022/03/20 01:01:49;;;;;;;30.42;19.67;;;3.60;99.90;;;;;;5069208;28;20252;-76
2022/03/20 01:04:16;;;;;;;34.53;20.17;;;3.70;99.90;;;;;;5069466;28;20642;-76
2022/03/20 01:06:42;;;;;;;28.60;18.37;;;3.70;99.90;;;;;;5069398;28;20634;-76
2022/03/20 01:09:08;;;;;;;34.07;18.93;;;3.80;99.90;;;;;;5069098;28;20522;-75
2022/03/20 01:11:34;;;;;;;36.10;19.70;;;3.90;99.90;;;;;;5069164;28;20543;-75
2022/03/20 01:14:00;;;;;;;29.87;18.83;;;4.00;99.90;;;;;;5069310;28;21037;-75
2022/03/20 01:16:26;;;;;;;27.10;18.80;;;4.00;99.90;;;;;;5069130;28;20457;-75
2022/03/20 01:18:51;;;;;;;25.43;17.27;;;4.10;99.90;;;;;;5067775;28;20452;-76
2022/03/20 01:21:17;;;;;;;31.03;18.97;;;4.10;99.90;;;;;;5069534;28;20588;-75
2022/03/20 01:23:43;;;;;;;24.27;17.20;;;4.10;99.90;;;;;;5069989;28;20185;-76
2022/03/20 01:26:10;;;;;;;33.83;20.93;;;4.10;99.90;;;;;;5068274;28;20453;-75
2022/03/20 01:28:35;;;;;;;34.77;20.00;;;4.00;99.90;;;;;;5069561;28;20210;-76
2022/03/20 01:31:01;;;;;;;35.47;20.80;;;3.90;99.90;;;;;;5069761;28;20795;-76
2022/03/20 01:33:27;;;;;;;30.70;20.70;;;3.90;99.90;;;;;;5069289;28;20190;-76
2022/03/20 01:35:52;;;;;;;30.90;19.33;;;4.00;99.90;;;;;;5068080;28;20600;-76
2022/03/20 01:38:20;;;;;;;33.13;20.40;;;3.80;99.90;;;;;;5069579;28;20182;-76
2022/03/20 01:40:50;;;;;;;25.83;18.20;;;3.80;99.90;;;;;;5053453;28;20654;-78
2022/03/20 01:43:16;;;;;;;31.23;19.57;;;3.90;99.90;;;;;;5069139;28;20456;-77
2022/03/20 01:45:43;;;;;;;29.23;19.13;;;3.80;99.90;;;;;;5068967;28;20423;-77
2022/03/20 01:48:08;;;;;;;29.53;18.10;;;3.80;99.90;;;;;;5069202;28;20355;-77
2022/03/20 01:50:35;;;;;;;30.10;17.60;;;3.80;99.90;;;;;;5069221;28;20510;-77
2022/03/20 01:53:01;;;;;;;28.67;19.48;;;3.90;99.90;;;;;;5069560;28;20414;-76
2022/03/20 01:55:28;;;;;;;30.27;19.50;;;3.90;99.90;;;;;;5069059;28;20212;-77
2022/03/20 01:57:55;;;;;;;27.37;18.47;;;3.90;99.90;;;;;;5067369;28;20514;-76
2022/03/20 02:00:24;;;;;;;28.97;18.50;;;3.90;99.90;;;;;;5067472;28;20435;-77
2022/03/20 02:02:51;;;;;;;31.43;17.37;;;4.00;99.90;;;;;;5068450;28;20413;-76
2022/03/20 02:05:17;;;;;;;24.33;15.80;;;4.00;99.10;;;;;;5068397;28;20468;-77
2022/03/20 02:07:44;;;;;;;27.87;18.00;;;4.20;97.20;;;;;;5068446;28;20186;-77
2022/03/20 02:10:10;;;;;;;28.35;16.08;;;4.40;95.50;;;;;;5068562;28;20444;-77
2022/03/20 02:12:38;;;;;;;28.95;16.23;;;4.40;95.10;;;;;;5068587;28;20736;-78
2022/03/20 02:15:06;;;;;;;27.92;17.60;;;4.50;94.80;;;;;;5088773;28;20180;-79
2022/03/20 02:17:34;;;;;;;28.23;17.65;;;4.60;94.50;;;;;;5088643;28;20208;-78
2022/03/20 02:20:03;;;;;;;24.27;16.98;;;4.60;94.40;;;;;;5085685;28;20236;-79
2022/03/20 02:22:29;;;;;;;26.67;17.63;;;4.60;94.50;;;;;;5090022;28;20183;-79
2022/03/20 02:24:55;;;;;;;30.60;17.38;;;4.50;93.90;;;;;;5076176;28;20412;-77
2022/03/20 02:27:23;;;;;;;28.63;18.47;;;4.70;93.80;;;;;;5072239;28;20326;-76
2022/03/20 02:30:00;;;;;;;28.73;18.00;;;4.70;93.40;;;;;;5071860;28;20563;-76
2022/03/20 02:32:31;;;;;;;28.05;17.73;;;4.70;93.10;;;;;;5070607;28;20505;-76
2022/03/20 02:35:02;;;;;;;27.53;17.37;;;4.80;93.80;;;;;;5072904;28;20254;-80
2022/03/20 02:37:28;;;;;;;33.50;19.33;;;4.80;93.00;;;;;;5074441;28;20449;-77
2022/03/20 02:39:57;;;;;;;29.80;18.30;;;4.80;93.00;;;;;;5071375;28;20436;-77
2022/03/20 02:42:24;;;;;;;28.57;16.90;;;4.80;93.50;;;;;;5072075;28;20955;-79
2022/03/20 02:45:00;;;;;;;33.83;16.90;;;4.80;93.60;;;;;;5072131;28;20479;-79
2022/03/20 02:47:28;;;;;;;26.43;16.83;;;4.90;93.20;;;;;;5071609;28;20424;-79
2022/03/20 02:50:00;;;;;;;30.37;18.20;;;4.90;93.50;;;;;;5070658;28;20464;-79
2022/03/20 02:52:47;;;;;;;29.13;19.10;;;5.10;93.60;;;;;;5071041;28;20429;-78
2022/03/20 02:55:18;;;;;;;30.20;17.60;;;5.00;94.10;;;;;;5067201;28;20527;-78
2022/03/20 02:57:47;;;;;;;30.67;19.20;;;5.00;93.70;;;;;;5052945;28;20444;-78
2022/03/20 03:00:14;;;;;;;34.30;19.30;;;5.00;94.40;;;;;;5070980;28;20517;-77
2022/03/20 03:02:45;;;;;;;31.70;19.20;;;5.00;94.20;;;;;;5052871;28;20437;-77
2022/03/20 03:05:15;;;;;;;35.37;20.53;;;5.00;93.90;;;;;;5071198;28;20429;-77
2022/03/20 03:13:14;;;;;;;33.10;19.27;;;5.10;93.90;;;;;;5070950;28;20195;-78
2022/03/20 03:15:40;;;;;;;32.10;19.63;;;5.10;94.10;;;;;;5070526;28;20469;-78
2022/03/20 03:18:06;;;;;;;33.33;20.07;;;5.10;94.00;;;;;;5069112;28;20425;-76
2022/03/20 03:20:32;;;;;;;30.77;18.93;;;5.00;93.90;;;;;;5070574;28;20421;-77
2022/03/20 03:22:58;;;;;;;31.25;18.02;;;5.00;95.00;;;;;;5070410;28;20711;-77
2022/03/20 03:25:24;;;;;;;29.57;19.40;;;4.90;96.00;;;;;;5067809;28;20218;-77
2022/03/20 03:27:50;;;;;;;32.03;21.00;;;4.90;96.50;;;;;;5070442;28;20464;-77
2022/03/20 03:30:16;;;;;;;30.93;19.70;;;4.80;97.00;;;;;;5070299;28;20193;-76
2022/03/20 03:32:43;;;;;;;32.03;19.70;;;4.70;97.50;;;;;;5070676;28;20421;-78
2022/03/20 03:37:54;;;;;;;33.00;20.53;;;4.60;99.40;;;;;;5069231;28;20417;-78
2022/03/20 03:40:20;;;;;;;33.50;20.37;;;4.60;99.40;;;;;;5070048;28;20574;-77
2022/03/20 03:42:46;;;;;;;29.70;20.07;;;4.50;99.90;;;;;;5070585;28;20414;-78
2022/03/20 03:45:12;;;;;;;28.40;20.13;;;4.50;99.90;;;;;;5070413;28;20183;-79
2022/03/20 03:47:38;;;;;;;30.47;19.30;;;4.50;99.90;;;;;;5069251;28;20187;-80
2022/03/20 03:50:05;;;;;;;32.90;21.23;;;4.50;99.90;;;;;;5071629;28;20491;-79
2022/03/20 03:52:30;;;;;;;29.03;20.77;;;4.40;99.90;;;;;;5052248;28;20429;-78
2022/03/20 03:54:56;;;;;;;28.87;20.60;;;4.40;99.90;;;;;;5068418;28;20468;-78
2022/03/20 03:57:22;;;;;;;30.97;19.63;;;4.30;99.90;;;;;;5069795;28;20239;-78
2022/03/20 03:59:48;;;;;;;32.07;20.33;;;4.30;99.90;;;;;;5068185;28;20706;-77
2022/03/20 04:02:14;;;;;;;33.40;20.30;;;4.30;99.90;;;;;;5069671;28;20449;-78
2022/03/20 04:04:41;;;;;;;36.97;19.90;;;4.40;99.90;;;;;;5069616;28;20187;-77
2022/03/20 04:07:07;;;;;;;26.93;18.17;;;4.50;99.90;;;;;;5069899;28;20816;-75
2022/03/20 04:09:34;;;;;;;38.23;20.50;;;4.60;99.90;;;;;;5069624;28;20496;-78
2022/03/20 04:12:00;;;;;;;32.47;19.43;;;4.50;99.90;;;;;;5070019;28;20475;-80
2022/03/20 04:14:26;;;;;;;27.77;19.57;;;4.50;99.90;;;;;;5071389;28;20457;-79
2022/03/20 04:16:54;;;;;;;33.50;20.87;;;4.40;99.90;;;;;;5070562;28;20207;-78
2022/03/20 04:19:20;;;;;;;34.57;21.47;;;4.50;99.90;;;;;;5069980;28;20793;-77
2022/03/20 04:21:48;;;;;;;30.73;20.33;;;4.50;99.90;;;;;;5068366;28;20424;-79
2022/03/20 04:24:14;;;;;;;37.07;21.30;;;4.50;99.90;;;;;;5052543;28;20194;-78
2022/03/20 04:26:40;;;;;;;29.50;19.90;;;4.60;99.90;;;;;;5068563;28;21028;-78
2022/03/20 04:29:05;;;;;;;33.67;20.80;;;4.60;99.90;;;;;;5068696;28;20523;-79
2022/03/20 04:31:31;;;;;;;34.53;21.23;;;4.60;99.90;;;;;;5070633;28;20421;-79
2022/03/20 04:33:57;;;;;;;32.67;21.27;;;4.60;99.90;;;;;;5070334;28;20197;-78
2022/03/20 04:36:24;;;;;;;31.77;20.43;;;4.70;99.90;;;;;;5068091;28;20487;-78
2022/03/20 04:38:55;;;;;;;33.13;22.20;;;4.70;99.90;;;;;;5069826;28;20430;-78
2022/03/20 04:41:21;;;;;;;34.57;22.60;;;4.80;99.90;;;;;;5068353;28;20517;-79
2022/03/20 04:43:48;;;;;;;35.97;22.03;;;4.90;99.40;;;;;;5067810;28;20431;-79
2022/03/20 04:46:14;;;;;;;32.77;22.53;;;5.00;98.70;;;;;;5051454;28;20443;-78
2022/03/20 04:59:37;;;;;;;35.63;22.53;;;5.20;99.00;;;;;;5071861;28;20494;-78
2022/03/20 05:02:03;;;;;;;34.83;23.70;;;5.30;97.80;;;;;;5070166;28;20930;-79
2022/03/20 05:04:28;;;;;;;38.23;24.07;;;5.40;97.90;;;;;;5072830;28;20183;-79
2022/03/20 05:06:54;;;;;;;35.10;22.70;;;5.50;96.60;;;;;;5074319;28;20421;-78
2022/03/20 05:14:49;;;;;;;41.87;22.20;;;5.70;95.90;;;;;;5071212;28;20470;-77
2022/03/20 05:17:14;;;;;;;37.47;23.87;;;5.70;96.40;;;;;;5054324;28;20857;-79
2022/03/20 05:19:40;;;;;;;40.83;24.10;;;5.80;96.40;;;;;;5072634;28;20294;-78
2022/03/20 05:22:11;;;;;;;50.57;24.20;;;5.90;96.40;;;;;;5074652;28;20530;-79
2022/03/20 05:24:38;;;;;;;35.30;23.53;;;5.80;95.90;;;;;;5074473;28;20428;-79
2022/03/20 05:27:04;;;;;;;34.00;22.13;;;5.80;95.60;;;;;;5077687;28;20433;-80
2022/03/20 05:29:31;;;;;;;34.83;23.13;;;5.90;94.90;;;;;;5075646;28;20452;-79
2022/03/20 05:31:57;;;;;;;39.13;24.40;;;5.90;95.20;;;;;;5075285;28;20429;-80
2022/03/20 05:34:23;;;;;;;41.13;24.63;;;5.90;95.70;;;;;;5075133;28;20431;-81
2022/03/20 05:36:49;;;;;;;37.00;24.13;;;5.90;95.80;;;;;;5076290;28;20473;-80
2022/03/20 05:39:15;;;;;;;38.60;24.00;;;5.90;95.00;;;;;;5074539;28;21254;-81
2022/03/20 05:41:47;;;;;;;37.93;23.53;;;6.00;94.60;;;;;;5071083;28;20421;-76
2022/03/20 05:44:24;;;;;;;40.83;24.10;;;6.00;95.00;;;;;;5069373;28;20471;-76
2022/03/20 05:46:51;;;;;;;37.20;23.97;;;6.00;95.20;;;;;;5076579;28;20444;-77
2022/03/20 05:49:18;;;;;;;37.13;22.83;;;6.10;94.20;;;;;;5095875;28;20429;-78
2022/03/20 05:51:46;;;;;;;35.20;20.23;;;6.20;94.30;;;;;;5099261;28;20455;-78
2022/03/20 05:54:13;;;;;;;34.37;21.97;;;6.20;93.80;;;;;;5096361;28;20482;-77
2022/03/20 05:59:23;;;;;;;36.63;23.93;;;6.30;93.90;;;;;;5097218;28;20435;-78
2022/03/20 06:01:51;;;;;;;36.83;22.70;;;6.30;94.40;;;;;;5098067;28;20421;-79
2022/03/20 06:04:17;;;;;;;35.50;23.80;;;6.20;95.60;;;;;;5098349;28;20164;-78
2022/03/20 06:06:43;;;;;;;38.53;22.43;;;6.20;95.50;;;;;;5097917;28;20439;-78
2022/03/20 06:09:09;;;;;;;36.97;22.50;;;6.40;96.20;;;;;;5096761;28;20453;-79
2022/03/20 06:11:35;;;;;;;36.87;22.00;;;6.20;96.40;;;;;;5076793;28;20194;-80
2022/03/20 06:14:02;;;;;;;33.57;22.17;;;6.10;97.30;;;;;;5085904;28;20447;-79
2022/03/20 06:16:31;;;;;;;35.57;23.33;;;6.10;97.40;;;;;;5080843;28;20292;-79
2022/03/20 06:18:57;;;;;;;41.40;23.57;;;6.20;97.10;;;;;;5080332;28;20474;-79
2022/03/20 06:21:23;;;;;;;35.60;21.37;;;6.30;95.60;;;;;;5079444;28;20445;-79
2022/03/20 06:23:56;;;;;;;35.97;22.63;;;6.40;94.90;;;;;;5096926;28;20429;-78
2022/03/20 06:26:23;;;;;;;35.73;22.30;;;6.60;94.80;;;;;;5097827;28;20466;-77
2022/03/20 06:28:49;;;;;;;41.63;22.00;;;6.60;94.30;;;;;;5089914;28;20540;-77
2022/03/20 06:31:17;;;;;;;41.90;21.73;;;6.60;93.60;;;;;;5088082;28;20426;-76
2022/03/20 06:33:46;;;;;;;33.73;21.77;;;6.60;93.60;;;;;;5090643;28;20558;-75
2022/03/20 06:36:13;;;;;;;36.60;20.63;;;6.60;93.70;;;;;;5082148;28;20457;-73
2022/03/20 06:38:39;;;;;;;37.83;21.97;;;6.70;93.40;;;;;;5072440;28;21104;-76
2022/03/20 06:41:07;;;;;;;37.97;23.20;;;6.70;93.20;;;;;;5072842;28;20415;-74
2022/03/20 06:43:35;;;;;;;35.67;22.80;;;6.80;93.30;;;;;;5089155;28;20425;-77
2022/03/20 06:46:01;;;;;;;34.10;22.37;;;6.90;93.40;;;;;;5082570;28;20421;-76
2022/03/20 06:48:27;;;;;;;33.73;22.33;;;6.90;92.70;;;;;;5072093;28;20515;-79
2022/03/20 06:50:53;;;;;;;36.27;22.70;;;6.90;93.00;;;;;;5073855;28;20934;-79
2022/03/20 06:53:19;;;;;;;34.00;22.37;;;7.00;93.20;;;;;;5056062;28;20437;-77
2022/03/20 06:55:45;;;;;;;37.23;22.30;;;7.10;92.90;;;;;;5077569;28;20476;-77
2022/03/20 06:58:13;;;;;;;35.93;21.00;;;7.10;92.20;;;;;;5072129;28;20557;-77
2022/03/20 07:00:40;;;;;;;35.23;22.17;;;7.00;91.60;;;;;;5082689;28;20421;-77
2022/03/20 07:03:07;;;;;;;32.07;20.37;;;7.20;91.50;;;;;;5084896;28;20428;-78
2022/03/20 07:05:36;;;;;;;33.13;20.20;;;7.10;91.90;;;;;;5073351;28;20444;-79
2022/03/20 07:08:04;;;;;;;38.70;23.00;;;7.30;91.40;;;;;;5084471;28;20418;-79
2022/03/20 07:10:30;;;;;;;39.73;21.63;;;7.50;91.10;;;;;;5076970;28;20431;-78
2022/03/20 07:15:42;;;;;;;31.37;21.60;;;8.00;89.70;;;;;;5072492;28;20468;-78
2022/03/20 07:18:09;;;;;;;30.97;19.70;;;8.40;87.20;;;;;;5071997;28;20430;-78
2022/03/20 07:20:37;;;;;;;30.23;19.77;;;8.70;85.80;;;;;;5071071;28;21283;-78
2022/03/20 07:23:03;;;;;;;31.43;20.77;;;8.80;83.30;;;;;;5070635;28;20421;-77
2022/03/20 07:30:57;;;;;;;38.40;19.10;;;9.40;79.80;;;;;;5072054;28;20401;-78
2022/03/20 07:33:24;;;;;;;32.90;20.30;;;9.50;78.80;;;;;;5070436;28;20425;-79
2022/03/20 07:35:50;;;;;;;32.30;21.00;;;9.70;77.70;;;;;;5053468;28;20225;-78
2022/03/20 07:38:16;;;;;;;31.30;20.10;;;9.60;75.90;;;;;;5070477;28;20789;-78
2022/03/20 07:40:42;;;;;;;37.63;21.43;;;9.70;77.60;;;;;;5070331;28;20627;-79
2022/03/20 07:43:08;;;;;;;32.83;20.93;;;9.90;76.20;;;;;;5053522;28;20198;-78
2022/03/20 07:45:34;;;;;;;31.67;21.33;;;9.90;75.80;;;;;;5071551;28;20524;-78
2022/03/20 07:48:00;;;;;;;31.63;21.27;;;10.30;74.60;;;;;;5070444;28;20946;-78
2022/03/20 07:50:26;;;;;;;30.27;20.90;;;10.50;70.50;;;;;;5070304;28;20449;-78
2022/03/20 07:52:51;;;;;;;26.90;18.57;;;10.90;70.50;;;;;;5072036;28;20703;-79
2022/03/20 07:55:17;;;;;;;30.83;18.47;;;11.00;69.10;;;;;;5071911;28;20183;-78
2022/03/20 07:57:44;;;;;;;36.63;21.97;;;10.80;66.70;;;;;;5072015;28;20721;-78
2022/03/20 08:00:11;;;;;;;30.63;21.40;;;10.90;68.20;;;;;;5070155;28;20441;-78
2022/03/20 08:02:37;;;;;;;28.20;19.80;;;11.00;69.40;;;;;;5070222;28;20451;-78
2022/03/20 08:05:03;;;;;;;31.50;21.03;;;11.10;68.10;;;;;;5070459;28;20445;-78
2022/03/20 08:07:35;;;;;;;35.93;19.90;;;10.70;66.60;;;;;;5071714;28;20460;-77
2022/03/20 08:10:05;;;;;;;28.87;20.37;;;11.00;67.70;;;;;;5069449;28;20948;-78
2022/03/20 08:12:31;;;;;;;29.10;20.70;;;11.20;67.20;;;;;;5071227;28;20528;-78
2022/03/20 08:14:58;;;;;;;32.53;21.53;;;11.40;65.00;;;;;;5069712;28;20510;-78
2022/03/20 08:17:24;;;;;;;30.30;21.20;;;11.60;67.50;;;;;;5071335;28;20493;-79
2022/03/20 08:19:49;;;;;;;28.20;19.43;;;12.00;65.90;;;;;;5070489;28;20495;-78
2022/03/20 08:22:15;;;;;;;31.87;19.97;;;12.50;64.80;;;;;;5071809;28;20262;-78
2022/03/20 08:24:44;;;;;;;27.23;20.73;;;12.70;65.50;;;;;;5070838;28;20635;-79
2022/03/20 08:27:11;;;;;;;29.43;20.20;;;12.50;60.70;;;;;;5053813;28;20449;-78
2022/03/20 08:29:36;;;;;;;25.40;18.40;;;12.90;60.80;;;;;;5069294;28;20554;-78
2022/03/20 08:32:02;;;;;;;57.90;31.10;;;13.40;61.20;;;;;;5070749;28;20501;-79
2022/03/20 08:34:28;;;;;;;48.73;30.27;;;13.70;59.10;;;;;;5068790;28;20572;-78
2022/03/20 08:36:54;;;;;;;31.17;20.90;;;13.90;59.20;;;;;;5068893;28;20561;-79
2022/03/20 08:39:20;;;;;;;25.40;19.37;;;13.70;56.80;;;;;;5070815;28;20205;-78
2022/03/20 08:41:47;;;;;;;33.70;20.33;;;13.20;56.40;;;;;;5052322;28;20435;-79
2022/03/20 08:44:14;;;;;;;28.77;21.23;;;13.20;58.60;;;;;;5068967;28;20450;-79
2022/03/20 08:46:39;;;;;;;26.50;19.33;;;13.30;56.90;;;;;;5070565;28;20427;-79
2022/03/20 08:49:09;;;;;;;32.60;20.37;;;13.70;58.00;;;;;;5070554;28;20439;-78
2022/03/20 08:51:38;;;;;;;32.53;21.10;;;13.80;55.70;;;;;;5073225;28;20650;-78
2022/03/20 08:54:03;;;;;;;25.57;19.50;;;14.40;56.60;;;;;;5070591;28;20781;-78
2022/03/20 08:56:30;;;;;;;33.40;20.47;;;14.00;53.00;;;;;;5070368;28;20464;-78
2022/03/20 08:58:56;;;;;;;32.07;20.37;;;14.30;53.30;;;;;;5068204;28;20201;-78
2022/03/20 09:01:22;;;;;;;41.20;27.87;;;15.10;54.30;;;;;;5051155;28;20798;-79
2022/03/20 09:03:50;;;;;;;32.70;23.07;;;15.90;57.60;;;;;;5069299;28;20424;-79
2022/03/20 09:06:22;;;;;;;31.10;22.13;;;16.20;61.40;;;;;;5067826;28;20432;-78
2022/03/20 09:08:49;;;;;;;33.67;20.90;;;16.60;61.10;;;;;;5068708;28;20787;-78
2022/03/20 09:11:16;;;;;;;31.83;23.20;;;17.00;61.00;;;;;;5050403;28;20445;-79
2022/03/20 09:13:42;;;;;;;29.03;22.30;;;17.80;58.90;;;;;;5067538;28;20425;-78
2022/03/20 09:19:02;;;;;;;28.10;21.43;;;18.10;57.80;;;;;;5068941;28;20205;-79
2022/03/20 09:21:30;;;;;;;30.87;22.73;;;18.10;57.80;;;;;;5068487;28;20417;-79
2022/03/20 09:23:56;;;;;;;35.83;26.03;;;18.30;57.30;;;;;;5066957;28;20414;-80
2022/03/20 09:26:22;;;;;;;33.30;23.20;;;18.20;57.00;;;;;;5068540;28;20506;-79
2022/03/20 09:28:49;;;;;;;30.77;23.77;;;18.30;57.30;;;;;;5072072;28;20215;-79
2022/03/20 09:31:15;;;;;;;31.33;23.73;;;18.70;56.30;;;;;;5069270;28;20272;-78
2022/03/20 09:33:42;;;;;;;27.20;22.00;;;18.70;56.10;;;;;;5068626;28;20442;-78
2022/03/20 09:36:08;;;;;;;33.30;24.03;;;19.00;56.70;;;;;;5067297;28;20470;-79
2022/03/20 09:38:34;;;;;;;33.07;23.73;;;19.30;55.00;;;;;;5050192;28;20441;-79
2022/03/20 09:41:09;;;;;;;33.00;24.70;;;19.10;55.30;;;;;;5068441;28;20186;-78
2022/03/20 09:43:37;;;;;;;30.17;22.77;;;19.10;56.00;;;;;;5068540;28;20490;-78
2022/03/20 09:46:03;;;;;;;34.80;24.60;;;19.30;54.70;;;;;;5066854;28;20937;-80
2022/03/20 09:48:30;;;;;;;27.47;23.23;;;19.40;54.00;;;;;;5050061;28;20442;-79
2022/03/20 09:50:58;;;;;;;32.47;23.73;;;19.70;55.10;;;;;;5049908;28;20200;-81
2022/03/20 09:53:24;;;;;;;32.20;23.90;;;20.00;53.80;;;;;;5067899;28;20429;-80
2022/03/20 09:55:51;;;;;;;29.83;22.30;;;19.90;53.80;;;;;;5068100;28;20461;-79
2022/03/20 09:58:16;;;;;;;29.60;22.63;;;20.20;53.70;;;;;;5067224;28;20424;-80
2022/03/20 10:00:42;;;;;;;29.73;21.83;;;20.90;51.90;;;;;;5066515;28;20515;-80
2022/03/20 10:03:19;;;;;;;34.03;24.63;;;20.40;51.10;;;;;;5066043;28;20179;-80
2022/03/20 10:06:01;;;;;;;31.60;24.60;;;20.90;50.30;;;;;;5066180;28;20284;-81
2022/03/20 10:08:26;;;;;;;31.60;24.50;;;20.50;50.90;;;;;;5069558;28;21024;-83
2022/03/20 10:11:11;;;;;;;53.70;32.60;;;20.60;49.00;;;;;;5056908;28;20460;-83
2022/03/20 10:13:37;;;;;;;31.37;23.33;;;21.00;49.10;;;;;;5073525;28;20193;-83
2022/03/20 10:16:17;;;;;;;34.77;24.50;;;20.90;49.30;;;;;;5054951;28;20457;-82
2022/03/20 10:18:43;;;;;;;29.60;22.33;;;21.10;48.70;;;;;;5070056;28;20207;-81
2022/03/20 10:21:09;;;;;;;31.20;22.50;;;21.30;47.60;;;;;;5053919;28;20509;-85
2022/03/20 10:23:41;;;;;;;29.20;22.60;;;21.10;45.20;;;;;;5053750;28;20216;-82
2022/03/20 10:26:11;;;;;;;29.77;21.33;;;20.90;44.70;;;;;;5072266;28;20460;-81
2022/03/20 10:28:42;;;;;;;28.07;20.93;;;21.10;44.70;;;;;;5070592;28;20524;-81
2022/03/20 10:31:18;;;;;;;30.43;21.77;;;21.00;43.50;;;;;;5053154;28;20437;-81
2022/03/20 10:33:58;;;;;;;28.97;21.23;;;21.20;42.60;;;;;;5072475;28;20421;-83
2022/03/20 10:36:24;;;;;;;30.40;20.13;;;21.50;42.70;;;;;;5074158;28;20469;-84
2022/03/20 10:38:50;;;;;;;28.53;20.60;;;21.80;40.10;;;;;;5057746;28;20441;-84
2022/03/20 10:41:20;;;;;;;28.53;20.30;;;22.00;40.30;;;;;;5074035;28;20179;-84
2022/03/20 10:43:47;;;;;;;24.23;19.73;;;21.80;39.60;;;;;;5057396;28;20518;-86
2022/03/20 10:46:32;;;;;;;25.37;19.50;;;22.00;39.20;;;;;;5074690;28;20428;-86
2022/03/20 10:49:03;;;;;;;26.73;20.47;;;22.20;38.50;;;;;;5075991;28;20452;-83
2022/03/20 10:51:39;;;;;;;25.80;17.33;;;22.60;38.30;;;;;;5073667;28;20437;-80
2022/03/20 10:54:13;;;;;;;21.80;17.60;;;22.80;37.70;;;;;;5073797;28;20427;-82
2022/03/20 10:56:57;;;;;;;23.90;18.63;;;22.80;37.30;;;;;;5073650;28;20467;-82
2022/03/20 10:59:24;;;;;;;22.40;17.13;;;22.60;37.90;;;;;;5074917;28;20531;-82
2022/03/20 11:01:50;;;;;;;38.50;19.13;;;22.60;38.50;;;;;;5073592;28;20801;-79
2022/03/20 11:04:16;;;;;;;25.07;18.50;;;22.60;37.10;;;;;;5074968;28;20419;-80
2022/03/20 11:06:47;;;;;;;28.23;18.77;;;22.50;35.80;;;;;;5056801;28;20444;-80
2022/03/20 11:09:13;;;;;;;24.43;18.27;;;22.70;37.20;;;;;;5075438;28;20463;-81
2022/03/20 11:11:53;;;;;;;24.80;20.70;;;22.90;35.40;;;;;;5073494;28;20539;-82
2022/03/20 11:14:20;;;;;;;24.60;18.30;;;22.70;34.20;;;;;;5073140;28;20421;-81
2022/03/20 11:16:51;;;;;;;21.90;17.47;;;22.70;35.80;;;;;;5074360;28;21025;-82
2022/03/20 11:19:24;;;;;;;26.83;17.83;;;23.10;36.90;;;;;;5074640;28;20433;-81
2022/03/20 11:21:53;;;;;;;24.83;19.03;;;23.00;37.00;;;;;;5056225;28;20768;-82
2022/03/20 11:24:20;;;;;;;23.80;18.20;;;23.30;36.30;;;;;;5056255;28;20515;-82
2022/03/20 11:26:51;;;;;;;21.77;18.17;;;23.30;36.30;;;;;;5074553;28;20959;-80
2022/03/20 11:29:19;;;;;;;23.40;19.63;;;23.30;35.10;;;;;;5072531;28;20492;-81
2022/03/20 11:31:45;;;;;;;24.90;19.07;;;23.20;35.00;;;;;;5073995;28;20477;-81
2022/03/20 11:34:12;;;;;;;23.83;18.00;;;23.20;35.10;;;;;;5055719;28;20436;-81
2022/03/20 11:36:59;;;;;;;23.10;18.23;;;23.40;34.70;;;;;;5072877;28;20472;-82
2022/03/20 11:39:25;;;;;;;28.23;17.37;;;23.10;34.30;;;;;;5071705;28;20437;-81
2022/03/20 11:42:20;;;;;;;19.97;16.60;;;23.00;34.80;;;;;;5055164;28;20856;-81
2022/03/20 11:45:13;;;;;;;22.27;16.87;;;23.10;34.80;;;;;;5070721;28;20186;-82
2022/03/20 11:47:40;;;;;;;33.70;17.50;;;23.00;35.70;;;;;;5067092;28;20429;-80
2022/03/20 11:50:16;;;;;;;19.73;16.50;;;22.90;34.50;;;;;;5073368;28;20487;-82
2022/03/20 11:52:48;;;;;;;23.97;17.00;;;23.10;35.90;;;;;;5071392;28;20428;-80
2022/03/20 11:55:37;;;;;;;26.93;16.60;;;23.00;35.30;;;;;;5071851;28;20475;-85
2022/03/20 11:58:24;;;;;;;26.33;16.93;;;23.00;34.80;;;;;;5070982;28;20433;-80
2022/03/20 12:01:07;;;;;;;22.20;16.80;;;22.60;34.40;;;;;;5072229;28;20574;-81
2022/03/20 12:03:47;;;;;;;24.83;18.40;;;22.00;35.30;;;;;;5070521;28;20429;-80
2022/03/20 12:06:44;;;;;;;22.47;18.20;;;21.20;33.40;;;;;;5069920;28;21032;-81
2022/03/20 12:09:40;;;;;;;22.53;17.70;;;20.90;34.20;;;;;;5072015;28;20473;-80
2022/03/20 12:12:35;;;;;;;21.53;16.90;;;20.80;36.00;;;;;;5069271;28;20610;-81
2022/03/20 12:15:10;;;;;;;23.77;17.33;;;20.70;36.70;;;;;;5061146;28;20468;-81
2022/03/20 12:18:00;;;;;;;20.93;16.70;;;20.70;36.70;;;;;;5070737;28;20938;-81
2022/03/20 12:20:52;;;;;;;25.43;17.60;;;20.60;35.80;;;;;;5069267;28;20785;-82
2022/03/20 12:23:31;;;;;;;27.00;18.40;;;20.40;36.30;;;;;;5068915;28;20465;-81
2022/03/20 12:25:58;;;;;;;26.47;18.70;;;20.50;37.50;;;;;;5068757;28;20884;-82
2022/03/20 12:28:30;;;;;;;23.10;17.50;;;20.50;37.10;;;;;;5069146;28;20446;-81
2022/03/20 12:30:57;;;;;;;24.93;18.30;;;20.50;36.60;;;;;;5070957;28;20417;-81
2022/03/20 12:33:25;;;;;;;30.87;20.30;;;20.40;37.20;;;;;;5070309;28;20428;-82
2022/03/20 12:35:52;;;;;;;21.80;17.53;;;20.30;36.20;;;;;;5069145;28;21316;-82
2022/03/20 12:38:40;;;;;;;31.03;19.20;;;20.20;36.60;;;;;;5052274;28;20432;-80
2022/03/20 12:41:15;;;;;;;30.80;19.70;;;20.30;36.20;;;;;;5068391;28;20417;-80
2022/03/20 12:43:42;;;;;;;25.20;18.10;;;20.10;35.60;;;;;;5070819;28;21217;-81
2022/03/20 12:46:09;;;;;;;25.60;19.43;;;20.00;36.10;;;;;;5069330;28;20436;-80
2022/03/20 12:48:36;;;;;;;33.37;20.60;;;20.00;36.60;;;;;;5071210;28;20865;-81
2022/03/20 12:51:10;;;;;;;29.60;19.83;;;19.90;36.40;;;;;;5069919;28;21041;-81
2022/03/20 12:53:40;;;;;;;28.63;20.73;;;19.70;36.80;;;;;;5069319;28;20937;-80
2022/03/20 12:56:14;;;;;;;26.23;19.47;;;19.90;37.80;;;;;;5068664;28;20981;-81
2022/03/20 12:58:40;;;;;;;27.57;19.97;;;19.80;36.00;;;;;;5053351;28;20445;-79
2022/03/20 13:01:10;;;;;;;27.37;20.23;;;19.90;37.60;;;;;;5068357;28;20847;-79
2022/03/20 13:03:36;;;;;;;32.63;21.87;;;19.80;37.70;;;;;;5070290;28;20267;-74
2022/03/20 13:06:02;;;;;;;27.47;20.73;;;19.70;38.30;;;;;;5068453;28;20443;-76
2022/03/20 13:08:29;;;;;;;28.20;21.10;;;19.70;38.40;;;;;;5066862;28;20505;-76
2022/03/20 13:11:00;;;;;;;28.80;22.00;;;19.60;37.70;;;;;;5068274;28;20439;-76
2022/03/20 13:13:33;;;;;;;32.10;21.60;;;19.50;38.20;;;;;;5068127;28;20510;-75
2022/03/20 13:16:00;;;;;;;29.20;22.10;;;19.50;38.80;;;;;;5068180;28;20807;-75
2022/03/20 13:18:30;;;;;;;33.97;23.50;;;19.50;39.40;;;;;;5068314;28;20444;-76